sensor_id;sensor_type;location;lat;lon;timestamp;P1;durP1;ratioP1;P2;durP2;ratioP2
4812;SDS011;2420;51.202;8.698;2023-08-07T00:01:12;1.23;;;1.10;;
4812;SDS011;2420;51.202;8.698;2023-08-07T00:03:37;1.48;;;1.30;;
4812;SDS011;2420;51.202;8.698;2023-08-07T00:06:03;1.80;;;0.80;;
4812;SDS011;2420;51.202;8.698;2023-08-07T00:08:28;1.95;;;0.70;;
4812;SDS011;2420;51.202;8.698;2023-08-07T00:11:04;0.80;;;0.80;;
4812;SDS011;2420;51.202;8.698;2023-08-07T00:13:33;2.45;;;1.00;;
4812;SDS011;2420;51.202;8.698;2023-08-07T00:15:58;1.40;;;0.73;;
4812;SDS011;2420;51.202;8.698;2023-08-07T00:18:24;0.70;;;0.70;;
4812;SDS011;2420;51.202;8.698;2023-08-07T00:20:50;0.80;;;0.80;;
4812;SDS011;2420;51.202;8.698;2023-08-07T00:23:15;0.90;;;0.70;;
4812;SDS011;2420;51.202;8.698;2023-08-07T00:25:41;0.70;;;0.70;;
4812;SDS011;2420;51.202;8.698;2023-08-07T00:28:06;0.60;;;0.60;;
4812;SDS011;2420;51.202;8.698;2023-08-07T00:30:32;2.95;;;0.80;;
4812;SDS011;2420;51.202;8.698;2023-08-07T00:32:57;0.80;;;0.80;;
4812;SDS011;2420;51.202;8.698;2023-08-07T00:35:23;1.58;;;0.70;;
4812;SDS011;2420;51.202;8.698;2023-08-07T00:37:48;0.75;;;0.75;;
4812;SDS011;2420;51.202;8.698;2023-08-07T00:40:14;0.63;;;0.63;;
4812;SDS011;2420;51.202;8.698;2023-08-07T00:42:39;0.60;;;0.60;;
4812;SDS011;2420;51.202;8.698;2023-08-07T00:45:05;1.92;;;0.63;;
4812;SDS011;2420;51.202;8.698;2023-08-07T00:47:31;1.48;;;0.65;;
4812;SDS011;2420;51.202;8.698;2023-08-07T00:49:57;2.35;;;0.70;;
4812;SDS011;2420;51.202;8.698;2023-08-07T00:52:23;0.60;;;0.60;;
4812;SDS011;2420;51.202;8.698;2023-08-07T00:54:49;2.70;;;0.80;;
4812;SDS011;2420;51.202;8.698;2023-08-07T00:57:15;0.60;;;0.60;;
4812;SDS011;2420;51.202;8.698;2023-08-07T00:59:41;1.40;;;0.60;;
4812;SDS011;2420;51.202;8.698;2023-08-07T01:02:08;1.23;;;0.60;;
4812;SDS011;2420;51.202;8.698;2023-08-07T01:04:34;4.22;;;0.68;;
4812;SDS011;2420;51.202;8.698;2023-08-07T01:07:00;1.70;;;0.50;;
4812;SDS011;2420;51.202;8.698;2023-08-07T01:09:26;1.35;;;0.60;;
4812;SDS011;2420;51.202;8.698;2023-08-07T01:14:42;2.13;;;0.65;;
4812;SDS011;2420;51.202;8.698;2023-08-07T01:17:27;0.50;;;0.50;;
4812;SDS011;2420;51.202;8.698;2023-08-07T01:19:54;1.17;;;0.45;;
4812;SDS011;2420;51.202;8.698;2023-08-07T01:22:22;1.48;;;0.40;;
4812;SDS011;2420;51.202;8.698;2023-08-07T01:24:48;0.65;;;0.60;;
4812;SDS011;2420;51.202;8.698;2023-08-07T01:29:51;0.40;;;0.40;;
4812;SDS011;2420;51.202;8.698;2023-08-07T01:32:22;0.43;;;0.43;;
4812;SDS011;2420;51.202;8.698;2023-08-07T01:35:01;0.40;;;0.40;;
4812;SDS011;2420;51.202;8.698;2023-08-07T01:37:29;0.40;;;0.40;;
4812;SDS011;2420;51.202;8.698;2023-08-07T01:39:57;0.57;;;0.57;;
4812;SDS011;2420;51.202;8.698;2023-08-07T01:42:25;0.40;;;0.40;;
4812;SDS011;2420;51.202;8.698;2023-08-07T01:44:52;0.85;;;0.40;;
4812;SDS011;2420;51.202;8.698;2023-08-07T01:47:17;0.40;;;0.40;;
4812;SDS011;2420;51.202;8.698;2023-08-07T01:49:43;0.30;;;0.30;;
4812;SDS011;2420;51.202;8.698;2023-08-07T01:52:09;0.40;;;0.40;;
4812;SDS011;2420;51.202;8.698;2023-08-07T01:54:34;0.43;;;0.40;;
4812;SDS011;2420;51.202;8.698;2023-08-07T01:57:00;0.40;;;0.40;;
4812;SDS011;2420;51.202;8.698;2023-08-07T01:59:25;0.40;;;0.40;;
4812;SDS011;2420;51.202;8.698;2023-08-07T02:01:51;0.40;;;0.40;;
4812;SDS011;2420;51.202;8.698;2023-08-07T02:04:16;1.02;;;0.40;;
4812;SDS011;2420;51.202;8.698;2023-08-07T02:06:42;0.60;;;0.60;;
4812;SDS011;2420;51.202;8.698;2023-08-07T02:09:07;2.72;;;0.40;;
4812;SDS011;2420;51.202;8.698;2023-08-07T02:11:33;1.75;;;0.55;;
4812;SDS011;2420;51.202;8.698;2023-08-07T02:13:58;4.03;;;0.50;;
4812;SDS011;2420;51.202;8.698;2023-08-07T02:16:24;2.50;;;0.40;;
4812;SDS011;2420;51.202;8.698;2023-08-07T02:18:49;0.20;;;0.20;;
4812;SDS011;2420;51.202;8.698;2023-08-07T02:21:15;0.30;;;0.30;;
4812;SDS011;2420;51.202;8.698;2023-08-07T02:23:41;0.40;;;0.40;;
4812;SDS011;2420;51.202;8.698;2023-08-07T02:26:06;1.55;;;0.50;;
4812;SDS011;2420;51.202;8.698;2023-08-07T02:28:32;0.50;;;0.50;;
4812;SDS011;2420;51.202;8.698;2023-08-07T02:30:57;0.20;;;0.20;;
4812;SDS011;2420;51.202;8.698;2023-08-07T02:33:23;0.25;;;0.25;;
4812;SDS011;2420;51.202;8.698;2023-08-07T02:35:48;0.25;;;0.25;;
4812;SDS011;2420;51.202;8.698;2023-08-07T02:38:15;0.50;;;0.50;;
4812;SDS011;2420;51.202;8.698;2023-08-07T02:40:41;0.40;;;0.40;;
4812;SDS011;2420;51.202;8.698;2023-08-07T02:43:08;0.30;;;0.30;;
4812;SDS011;2420;51.202;8.698;2023-08-07T02:45:34;0.30;;;0.30;;
4812;SDS011;2420;51.202;8.698;2023-08-07T02:47:59;0.40;;;0.40;;
4812;SDS011;2420;51.202;8.698;2023-08-07T02:50:25;0.20;;;0.20;;
4812;SDS011;2420;51.202;8.698;2023-08-07T02:52:52;1.55;;;0.40;;
4812;SDS011;2420;51.202;8.698;2023-08-07T02:55:18;2.20;;;0.40;;
4812;SDS011;2420;51.202;8.698;2023-08-07T02:57:43;0.30;;;0.30;;
4812;SDS011;2420;51.202;8.698;2023-08-07T03:00:09;0.35;;;0.35;;
4812;SDS011;2420;51.202;8.698;2023-08-07T03:02:36;0.47;;;0.30;;
4812;SDS011;2420;51.202;8.698;2023-08-07T03:05:02;0.20;;;0.20;;
4812;SDS011;2420;51.202;8.698;2023-08-07T03:07:27;0.20;;;0.20;;
4812;SDS011;2420;51.202;8.698;2023-08-07T03:09:53;0.20;;;0.20;;
4812;SDS011;2420;51.202;8.698;2023-08-07T03:12:18;0.47;;;0.20;;
4812;SDS011;2420;51.202;8.698;2023-08-07T03:14:44;1.45;;;0.40;;
4812;SDS011;2420;51.202;8.698;2023-08-07T03:17:09;0.35;;;0.30;;
4812;SDS011;2420;51.202;8.698;2023-08-07T03:19:35;0.30;;;0.30;;
4812;SDS011;2420;51.202;8.698;2023-08-07T03:22:01;2.20;;;0.30;;
4812;SDS011;2420;51.202;8.698;2023-08-07T03:24:26;0.30;;;0.30;;
4812;SDS011;2420;51.202;8.698;2023-08-07T03:26:52;0.28;;;0.28;;
4812;SDS011;2420;51.202;8.698;2023-08-07T03:29:17;0.30;;;0.30;;
4812;SDS011;2420;51.202;8.698;2023-08-07T03:31:43;0.30;;;0.30;;
4812;SDS011;2420;51.202;8.698;2023-08-07T03:34:08;1.75;;;0.40;;
4812;SDS011;2420;51.202;8.698;2023-08-07T03:36:34;0.30;;;0.30;;
4812;SDS011;2420;51.202;8.698;2023-08-07T03:39:00;0.45;;;0.45;;
4812;SDS011;2420;51.202;8.698;2023-08-07T03:41:25;0.50;;;0.50;;
4812;SDS011;2420;51.202;8.698;2023-08-07T03:43:51;2.35;;;0.80;;
4812;SDS011;2420;51.202;8.698;2023-08-07T03:46:17;3.97;;;0.45;;
4812;SDS011;2420;51.202;8.698;2023-08-07T03:48:42;0.50;;;0.50;;
4812;SDS011;2420;51.202;8.698;2023-08-07T03:51:08;0.63;;;0.50;;
4812;SDS011;2420;51.202;8.698;2023-08-07T03:53:34;0.52;;;0.52;;
4812;SDS011;2420;51.202;8.698;2023-08-07T03:55:59;0.60;;;0.60;;
4812;SDS011;2420;51.202;8.698;2023-08-07T03:58:25;0.80;;;0.80;;
4812;SDS011;2420;51.202;8.698;2023-08-07T04:00:51;0.50;;;0.50;;
4812;SDS011;2420;51.202;8.698;2023-08-07T04:03:17;0.50;;;0.50;;
4812;SDS011;2420;51.202;8.698;2023-08-07T04:05:43;0.50;;;0.50;;
4812;SDS011;2420;51.202;8.698;2023-08-07T04:08:09;0.82;;;0.60;;
4812;SDS011;2420;51.202;8.698;2023-08-07T04:10:34;0.40;;;0.40;;
4812;SDS011;2420;51.202;8.698;2023-08-07T04:13:00;0.47;;;0.47;;
4812;SDS011;2420;51.202;8.698;2023-08-07T04:15:25;0.63;;;0.50;;
4812;SDS011;2420;51.202;8.698;2023-08-07T04:17:51;1.38;;;0.63;;
4812;SDS011;2420;51.202;8.698;2023-08-07T04:20:17;1.20;;;0.70;;
4812;SDS011;2420;51.202;8.698;2023-08-07T04:22:42;0.50;;;0.50;;
4812;SDS011;2420;51.202;8.698;2023-08-07T04:25:09;1.20;;;0.75;;
4812;SDS011;2420;51.202;8.698;2023-08-07T04:27:35;0.57;;;0.57;;
4812;SDS011;2420;51.202;8.698;2023-08-07T04:30:00;0.70;;;0.70;;
4812;SDS011;2420;51.202;8.698;2023-08-07T04:32:26;0.90;;;0.80;;
4812;SDS011;2420;51.202;8.698;2023-08-07T04:34:52;1.00;;;0.93;;
4812;SDS011;2420;51.202;8.698;2023-08-07T04:37:17;1.13;;;1.00;;
4812;SDS011;2420;51.202;8.698;2023-08-07T04:39:43;0.80;;;0.80;;
4812;SDS011;2420;51.202;8.698;2023-08-07T04:42:08;0.80;;;0.80;;
4812;SDS011;2420;51.202;8.698;2023-08-07T04:44:34;0.77;;;0.75;;
4812;SDS011;2420;51.202;8.698;2023-08-07T04:46:59;3.20;;;0.88;;
4812;SDS011;2420;51.202;8.698;2023-08-07T04:49:25;0.80;;;0.80;;
4812;SDS011;2420;51.202;8.698;2023-08-07T04:51:50;0.80;;;0.80;;
4812;SDS011;2420;51.202;8.698;2023-08-07T04:54:16;2.75;;;0.88;;
4812;SDS011;2420;51.202;8.698;2023-08-07T04:56:42;0.60;;;0.60;;
4812;SDS011;2420;51.202;8.698;2023-08-07T04:59:09;0.85;;;0.60;;
4812;SDS011;2420;51.202;8.698;2023-08-07T05:01:35;1.77;;;0.70;;
4812;SDS011;2420;51.202;8.698;2023-08-07T05:04:01;0.60;;;0.60;;
4812;SDS011;2420;51.202;8.698;2023-08-07T05:06:27;0.60;;;0.60;;
4812;SDS011;2420;51.202;8.698;2023-08-07T05:08:52;1.10;;;0.60;;
4812;SDS011;2420;51.202;8.698;2023-08-07T05:11:18;0.70;;;0.70;;
4812;SDS011;2420;51.202;8.698;2023-08-07T05:13:45;1.23;;;0.52;;
4812;SDS011;2420;51.202;8.698;2023-08-07T05:16:10;2.15;;;1.80;;
4812;SDS011;2420;51.202;8.698;2023-08-07T05:18:36;0.70;;;0.70;;
4812;SDS011;2420;51.202;8.698;2023-08-07T05:21:02;0.60;;;0.60;;
4812;SDS011;2420;51.202;8.698;2023-08-07T05:23:27;0.85;;;0.70;;
4812;SDS011;2420;51.202;8.698;2023-08-07T05:25:53;1.02;;;0.60;;
4812;SDS011;2420;51.202;8.698;2023-08-07T05:28:18;0.80;;;0.80;;
4812;SDS011;2420;51.202;8.698;2023-08-07T05:30:44;0.60;;;0.60;;
4812;SDS011;2420;51.202;8.698;2023-08-07T05:33:10;1.00;;;0.77;;
4812;SDS011;2420;51.202;8.698;2023-08-07T05:35:37;0.70;;;0.70;;
4812;SDS011;2420;51.202;8.698;2023-08-07T05:38:03;0.70;;;0.70;;
4812;SDS011;2420;51.202;8.698;2023-08-07T05:40:28;0.60;;;0.60;;
4812;SDS011;2420;51.202;8.698;2023-08-07T05:42:54;0.77;;;0.70;;
4812;SDS011;2420;51.202;8.698;2023-08-07T05:45:20;0.70;;;0.70;;
4812;SDS011;2420;51.202;8.698;2023-08-07T05:47:46;0.80;;;0.70;;
4812;SDS011;2420;51.202;8.698;2023-08-07T05:50:11;0.60;;;0.60;;
4812;SDS011;2420;51.202;8.698;2023-08-07T05:52:37;0.60;;;0.60;;
4812;SDS011;2420;51.202;8.698;2023-08-07T05:55:03;1.13;;;0.60;;
4812;SDS011;2420;51.202;8.698;2023-08-07T05:57:29;0.98;;;0.60;;
4812;SDS011;2420;51.202;8.698;2023-08-07T05:59:54;0.70;;;0.70;;
4812;SDS011;2420;51.202;8.698;2023-08-07T06:02:20;0.95;;;0.50;;
4812;SDS011;2420;51.202;8.698;2023-08-07T06:04:45;4.65;;;0.80;;
4812;SDS011;2420;51.202;8.698;2023-08-07T06:07:11;2.47;;;0.70;;
4812;SDS011;2420;51.202;8.698;2023-08-07T06:09:37;2.13;;;0.70;;
4812;SDS011;2420;51.202;8.698;2023-08-07T06:12:03;0.98;;;0.80;;
4812;SDS011;2420;51.202;8.698;2023-08-07T06:14:28;0.80;;;0.80;;
4812;SDS011;2420;51.202;8.698;2023-08-07T06:16:55;0.80;;;0.80;;
4812;SDS011;2420;51.202;8.698;2023-08-07T06:19:23;1.48;;;1.10;;
4812;SDS011;2420;51.202;8.698;2023-08-07T06:21:48;1.30;;;1.10;;
4812;SDS011;2420;51.202;8.698;2023-08-07T06:24:14;1.27;;;1.13;;
4812;SDS011;2420;51.202;8.698;2023-08-07T06:26:40;2.03;;;1.10;;
4812;SDS011;2420;51.202;8.698;2023-08-07T06:29:05;1.40;;;1.30;;
4812;SDS011;2420;51.202;8.698;2023-08-07T06:31:31;1.67;;;1.30;;
4812;SDS011;2420;51.202;8.698;2023-08-07T06:33:56;1.67;;;1.15;;
4812;SDS011;2420;51.202;8.698;2023-08-07T06:36:24;1.58;;;1.42;;
4812;SDS011;2420;51.202;8.698;2023-08-07T06:38:50;1.50;;;1.40;;
4812;SDS011;2420;51.202;8.698;2023-08-07T06:41:15;6.40;;;1.52;;
4812;SDS011;2420;51.202;8.698;2023-08-07T06:43:41;2.13;;;1.40;;
4812;SDS011;2420;51.202;8.698;2023-08-07T06:46:06;1.40;;;1.30;;
4812;SDS011;2420;51.202;8.698;2023-08-07T06:48:32;1.60;;;1.40;;
4812;SDS011;2420;51.202;8.698;2023-08-07T06:50:58;1.77;;;1.40;;
4812;SDS011;2420;51.202;8.698;2023-08-07T06:53:23;1.58;;;1.15;;
4812;SDS011;2420;51.202;8.698;2023-08-07T06:55:49;1.60;;;1.00;;
4812;SDS011;2420;51.202;8.698;2023-08-07T06:58:14;1.30;;;1.20;;
4812;SDS011;2420;51.202;8.698;2023-08-07T07:00:40;1.55;;;1.20;;
4812;SDS011;2420;51.202;8.698;2023-08-07T07:03:05;1.20;;;1.10;;
4812;SDS011;2420;51.202;8.698;2023-08-07T07:05:32;1.10;;;1.00;;
4812;SDS011;2420;51.202;8.698;2023-08-07T07:07:58;1.00;;;0.90;;
4812;SDS011;2420;51.202;8.698;2023-08-07T07:10:23;1.10;;;1.00;;
4812;SDS011;2420;51.202;8.698;2023-08-07T07:12:49;0.93;;;0.82;;
4812;SDS011;2420;51.202;8.698;2023-08-07T07:15:15;1.00;;;0.88;;
4812;SDS011;2420;51.202;8.698;2023-08-07T07:17:40;1.10;;;1.00;;
4812;SDS011;2420;51.202;8.698;2023-08-07T07:20:06;1.20;;;1.10;;
4812;SDS011;2420;51.202;8.698;2023-08-07T07:22:34;0.85;;;0.85;;
4812;SDS011;2420;51.202;8.698;2023-08-07T07:25:00;1.13;;;1.00;;
4812;SDS011;2420;51.202;8.698;2023-08-07T07:27:25;0.70;;;0.70;;
4812;SDS011;2420;51.202;8.698;2023-08-07T07:29:51;0.80;;;0.80;;
4812;SDS011;2420;51.202;8.698;2023-08-07T07:32:17;1.08;;;0.88;;
4812;SDS011;2420;51.202;8.698;2023-08-07T07:34:42;1.00;;;0.88;;
4812;SDS011;2420;51.202;8.698;2023-08-07T07:37:08;0.80;;;0.73;;
4812;SDS011;2420;51.202;8.698;2023-08-07T07:39:34;0.70;;;0.70;;
4812;SDS011;2420;51.202;8.698;2023-08-07T07:42:00;0.80;;;0.80;;
4812;SDS011;2420;51.202;8.698;2023-08-07T07:44:26;0.63;;;0.63;;
4812;SDS011;2420;51.202;8.698;2023-08-07T07:46:51;1.05;;;0.95;;
4812;SDS011;2420;51.202;8.698;2023-08-07T07:49:17;0.52;;;0.52;;
4812;SDS011;2420;51.202;8.698;2023-08-07T07:51:43;0.60;;;0.60;;
4812;SDS011;2420;51.202;8.698;2023-08-07T07:54:09;0.80;;;0.70;;
4812;SDS011;2420;51.202;8.698;2023-08-07T07:56:35;3.33;;;0.85;;
4812;SDS011;2420;51.202;8.698;2023-08-07T07:59:01;1.23;;;0.63;;
4812;SDS011;2420;51.202;8.698;2023-08-07T08:01:26;0.82;;;0.82;;
4812;SDS011;2420;51.202;8.698;2023-08-07T08:03:53;2.88;;;0.77;;
4812;SDS011;2420;51.202;8.698;2023-08-07T08:06:18;0.80;;;0.80;;
4812;SDS011;2420;51.202;8.698;2023-08-07T08:08:44;0.70;;;0.70;;
4812;SDS011;2420;51.202;8.698;2023-08-07T08:11:10;1.02;;;0.80;;
4812;SDS011;2420;51.202;8.698;2023-08-07T08:13:35;0.70;;;0.70;;
4812;SDS011;2420;51.202;8.698;2023-08-07T08:16:03;0.70;;;0.70;;
4812;SDS011;2420;51.202;8.698;2023-08-07T08:18:29;0.75;;;0.73;;
4812;SDS011;2420;51.202;8.698;2023-08-07T08:20:55;0.68;;;0.68;;
4812;SDS011;2420;51.202;8.698;2023-08-07T08:23:20;0.95;;;0.88;;
4812;SDS011;2420;51.202;8.698;2023-08-07T08:25:46;0.70;;;0.70;;
4812;SDS011;2420;51.202;8.698;2023-08-07T08:28:12;1.25;;;1.05;;
4812;SDS011;2420;51.202;8.698;2023-08-07T08:30:39;1.02;;;0.65;;
4812;SDS011;2420;51.202;8.698;2023-08-07T08:33:05;0.60;;;0.60;;
4812;SDS011;2420;51.202;8.698;2023-08-07T08:35:30;0.93;;;0.82;;
4812;SDS011;2420;51.202;8.698;2023-08-07T08:37:56;0.70;;;0.70;;
4812;SDS011;2420;51.202;8.698;2023-08-07T08:40:22;0.52;;;0.52;;
4812;SDS011;2420;51.202;8.698;2023-08-07T08:42:49;0.82;;;0.70;;
4812;SDS011;2420;51.202;8.698;2023-08-07T08:45:15;0.60;;;0.60;;
4812;SDS011;2420;51.202;8.698;2023-08-07T08:47:41;0.70;;;0.70;;
4812;SDS011;2420;51.202;8.698;2023-08-07T08:50:13;0.65;;;0.65;;
4812;SDS011;2420;51.202;8.698;2023-08-07T08:52:43;0.70;;;0.70;;
4812;SDS011;2420;51.202;8.698;2023-08-07T08:55:10;0.47;;;0.47;;
4812;SDS011;2420;51.202;8.698;2023-08-07T08:57:37;0.98;;;0.88;;
4812;SDS011;2420;51.202;8.698;2023-08-07T09:00:04;0.98;;;0.85;;
4812;SDS011;2420;51.202;8.698;2023-08-07T09:02:39;1.20;;;1.10;;
4812;SDS011;2420;51.202;8.698;2023-08-07T09:05:06;1.10;;;1.00;;
4812;SDS011;2420;51.202;8.698;2023-08-07T09:07:32;1.35;;;0.90;;
4812;SDS011;2420;51.202;8.698;2023-08-07T09:09:58;1.92;;;1.10;;
4812;SDS011;2420;51.202;8.698;2023-08-07T09:12:26;1.50;;;1.35;;
4812;SDS011;2420;51.202;8.698;2023-08-07T09:14:56;1.17;;;1.08;;
4812;SDS011;2420;51.202;8.698;2023-08-07T09:17:29;1.55;;;0.88;;
4812;SDS011;2420;51.202;8.698;2023-08-07T09:19:59;0.88;;;0.88;;
4812;SDS011;2420;51.202;8.698;2023-08-07T09:22:25;1.67;;;1.40;;
4812;SDS011;2420;51.202;8.698;2023-08-07T09:24:51;1.42;;;1.33;;
4812;SDS011;2420;51.202;8.698;2023-08-07T09:27:17;2.40;;;1.25;;
4812;SDS011;2420;51.202;8.698;2023-08-07T09:29:43;2.65;;;1.67;;
4812;SDS011;2420;51.202;8.698;2023-08-07T09:32:11;2.13;;;1.50;;
4812;SDS011;2420;51.202;8.698;2023-08-07T09:34:40;2.75;;;1.70;;
4812;SDS011;2420;51.202;8.698;2023-08-07T09:37:07;2.05;;;1.80;;
4812;SDS011;2420;51.202;8.698;2023-08-07T09:39:33;1.55;;;1.45;;
4812;SDS011;2420;51.202;8.698;2023-08-07T09:42:00;1.40;;;1.30;;
4812;SDS011;2420;51.202;8.698;2023-08-07T09:44:34;3.08;;;1.30;;
4812;SDS011;2420;51.202;8.698;2023-08-07T09:47:01;1.67;;;1.20;;
4812;SDS011;2420;51.202;8.698;2023-08-07T09:49:40;2.17;;;1.55;;
4812;SDS011;2420;51.202;8.698;2023-08-07T09:52:06;1.60;;;1.23;;
4812;SDS011;2420;51.202;8.698;2023-08-07T09:54:32;1.95;;;1.40;;
4812;SDS011;2420;51.202;8.698;2023-08-07T09:56:59;1.50;;;1.30;;
4812;SDS011;2420;51.202;8.698;2023-08-07T09:59:28;2.47;;;1.30;;
4812;SDS011;2420;51.202;8.698;2023-08-07T10:01:54;1.70;;;1.20;;
4812;SDS011;2420;51.202;8.698;2023-08-07T10:04:21;1.40;;;1.30;;
4812;SDS011;2420;51.202;8.698;2023-08-07T10:06:47;2.95;;;1.20;;
4812;SDS011;2420;51.202;8.698;2023-08-07T10:09:13;1.35;;;1.00;;
4812;SDS011;2420;51.202;8.698;2023-08-07T10:11:39;2.35;;;1.27;;
4812;SDS011;2420;51.202;8.698;2023-08-07T10:14:06;3.03;;;1.20;;
4812;SDS011;2420;51.202;8.698;2023-08-07T10:16:32;1.40;;;1.30;;
4812;SDS011;2420;51.202;8.698;2023-08-07T10:18:57;2.50;;;1.40;;
4812;SDS011;2420;51.202;8.698;2023-08-07T10:21:23;2.10;;;1.40;;
4812;SDS011;2420;51.202;8.698;2023-08-07T10:23:51;2.38;;;1.50;;
4812;SDS011;2420;51.202;8.698;2023-08-07T10:26:18;2.88;;;1.80;;
4812;SDS011;2420;51.202;8.698;2023-08-07T10:28:45;2.20;;;1.70;;
4812;SDS011;2420;51.202;8.698;2023-08-07T10:31:12;1.95;;;1.48;;
4812;SDS011;2420;51.202;8.698;2023-08-07T10:33:40;2.20;;;1.63;;
4812;SDS011;2420;51.202;8.698;2023-08-07T10:36:09;2.67;;;1.48;;
4812;SDS011;2420;51.202;8.698;2023-08-07T10:38:36;3.03;;;1.27;;
4812;SDS011;2420;51.202;8.698;2023-08-07T10:41:06;2.22;;;1.20;;
4812;SDS011;2420;51.202;8.698;2023-08-07T10:43:42;1.92;;;1.40;;
4812;SDS011;2420;51.202;8.698;2023-08-07T10:46:10;3.05;;;1.60;;
4812;SDS011;2420;51.202;8.698;2023-08-07T10:48:59;2.45;;;1.67;;
4812;SDS011;2420;51.202;8.698;2023-08-07T10:51:33;4.15;;;1.80;;
4812;SDS011;2420;51.202;8.698;2023-08-07T10:54:01;3.38;;;1.63;;
4812;SDS011;2420;51.202;8.698;2023-08-07T10:56:36;2.85;;;1.60;;
4812;SDS011;2420;51.202;8.698;2023-08-07T10:59:08;1.95;;;1.70;;
4812;SDS011;2420;51.202;8.698;2023-08-07T11:04:08;3.08;;;1.90;;
4812;SDS011;2420;51.202;8.698;2023-08-07T11:06:35;4.13;;;1.70;;
4812;SDS011;2420;51.202;8.698;2023-08-07T11:09:02;4.20;;;2.25;;
4812;SDS011;2420;51.202;8.698;2023-08-07T11:11:30;2.50;;;1.85;;
4812;SDS011;2420;51.202;8.698;2023-08-07T11:14:05;3.72;;;2.13;;
4812;SDS011;2420;51.202;8.698;2023-08-07T11:16:40;3.75;;;2.22;;
4812;SDS011;2420;51.202;8.698;2023-08-07T11:19:06;7.18;;;2.22;;
4812;SDS011;2420;51.202;8.698;2023-08-07T11:21:33;6.50;;;2.33;;
4812;SDS011;2420;51.202;8.698;2023-08-07T11:23:59;3.50;;;2.15;;
4812;SDS011;2420;51.202;8.698;2023-08-07T11:26:24;4.97;;;2.30;;
4812;SDS011;2420;51.202;8.698;2023-08-07T11:28:52;4.53;;;2.88;;
4812;SDS011;2420;51.202;8.698;2023-08-07T11:31:18;4.22;;;2.33;;
4812;SDS011;2420;51.202;8.698;2023-08-07T11:33:44;6.57;;;2.47;;
4812;SDS011;2420;51.202;8.698;2023-08-07T11:36:13;3.50;;;2.63;;
4812;SDS011;2420;51.202;8.698;2023-08-07T11:38:40;4.40;;;2.45;;
4812;SDS011;2420;51.202;8.698;2023-08-07T11:41:10;4.70;;;2.72;;
4812;SDS011;2420;51.202;8.698;2023-08-07T11:43:37;6.85;;;2.70;;
4812;SDS011;2420;51.202;8.698;2023-08-07T11:46:04;3.22;;;2.20;;
4812;SDS011;2420;51.202;8.698;2023-08-07T11:48:36;3.92;;;2.53;;
4812;SDS011;2420;51.202;8.698;2023-08-07T11:51:02;5.20;;;2.50;;
4812;SDS011;2420;51.202;8.698;2023-08-07T11:53:29;4.97;;;2.83;;
4812;SDS011;2420;51.202;8.698;2023-08-07T11:55:57;5.55;;;2.22;;
4812;SDS011;2420;51.202;8.698;2023-08-07T11:58:27;3.90;;;2.50;;
4812;SDS011;2420;51.202;8.698;2023-08-07T12:00:58;3.92;;;2.38;;
4812;SDS011;2420;51.202;8.698;2023-08-07T12:03:24;2.72;;;2.17;;
4812;SDS011;2420;51.202;8.698;2023-08-07T12:05:57;5.97;;;2.40;;
4812;SDS011;2420;51.202;8.698;2023-08-07T12:08:24;3.80;;;2.35;;
4812;SDS011;2420;51.202;8.698;2023-08-07T12:10:55;5.60;;;2.53;;
4812;SDS011;2420;51.202;8.698;2023-08-07T12:13:24;4.43;;;2.70;;
4812;SDS011;2420;51.202;8.698;2023-08-07T12:15:53;4.47;;;2.95;;
4812;SDS011;2420;51.202;8.698;2023-08-07T12:18:19;7.88;;;3.30;;
4812;SDS011;2420;51.202;8.698;2023-08-07T12:20:46;3.75;;;2.60;;
4812;SDS011;2420;51.202;8.698;2023-08-07T12:23:14;5.50;;;3.15;;
4812;SDS011;2420;51.202;8.698;2023-08-07T12:25:43;4.55;;;3.00;;
4812;SDS011;2420;51.202;8.698;2023-08-07T12:28:10;4.93;;;2.90;;
4812;SDS011;2420;51.202;8.698;2023-08-07T12:30:38;8.75;;;2.70;;
4812;SDS011;2420;51.202;8.698;2023-08-07T12:33:04;4.80;;;2.90;;
4812;SDS011;2420;51.202;8.698;2023-08-07T12:35:31;6.45;;;2.88;;
4812;SDS011;2420;51.202;8.698;2023-08-07T12:37:57;6.53;;;3.08;;
4812;SDS011;2420;51.202;8.698;2023-08-07T12:40:22;5.38;;;2.60;;
4812;SDS011;2420;51.202;8.698;2023-08-07T12:42:48;4.88;;;2.72;;
4812;SDS011;2420;51.202;8.698;2023-08-07T12:45:15;5.78;;;3.20;;
4812;SDS011;2420;51.202;8.698;2023-08-07T12:47:41;6.15;;;2.85;;
4812;SDS011;2420;51.202;8.698;2023-08-07T12:50:07;5.60;;;2.75;;
4812;SDS011;2420;51.202;8.698;2023-08-07T12:52:33;4.55;;;3.00;;
4812;SDS011;2420;51.202;8.698;2023-08-07T12:54:59;7.22;;;2.75;;
4812;SDS011;2420;51.202;8.698;2023-08-07T12:57:25;5.78;;;2.75;;
4812;SDS011;2420;51.202;8.698;2023-08-07T12:59:51;5.50;;;2.42;;
4812;SDS011;2420;51.202;8.698;2023-08-07T13:02:16;6.63;;;2.70;;
4812;SDS011;2420;51.202;8.698;2023-08-07T13:04:42;5.80;;;2.78;;
4812;SDS011;2420;51.202;8.698;2023-08-07T13:07:07;4.15;;;2.60;;
4812;SDS011;2420;51.202;8.698;2023-08-07T13:09:33;4.38;;;2.60;;
4812;SDS011;2420;51.202;8.698;2023-08-07T13:11:58;5.97;;;2.72;;
4812;SDS011;2420;51.202;8.698;2023-08-07T13:14:24;5.65;;;2.95;;
4812;SDS011;2420;51.202;8.698;2023-08-07T13:16:50;6.13;;;3.00;;
4812;SDS011;2420;51.202;8.698;2023-08-07T13:19:16;3.40;;;2.35;;
4812;SDS011;2420;51.202;8.698;2023-08-07T13:21:41;6.68;;;2.92;;
4812;SDS011;2420;51.202;8.698;2023-08-07T13:24:07;5.57;;;2.60;;
4812;SDS011;2420;51.202;8.698;2023-08-07T13:26:32;5.72;;;2.80;;
4812;SDS011;2420;51.202;8.698;2023-08-07T13:28:58;6.78;;;2.80;;
4812;SDS011;2420;51.202;8.698;2023-08-07T13:31:24;5.63;;;3.28;;
4812;SDS011;2420;51.202;8.698;2023-08-07T13:33:49;8.43;;;2.92;;
4812;SDS011;2420;51.202;8.698;2023-08-07T13:36:15;5.55;;;2.88;;
4812;SDS011;2420;51.202;8.698;2023-08-07T13:38:40;6.03;;;2.88;;
4812;SDS011;2420;51.202;8.698;2023-08-07T13:41:06;7.32;;;2.72;;
4812;SDS011;2420;51.202;8.698;2023-08-07T13:43:32;6.50;;;2.90;;
4812;SDS011;2420;51.202;8.698;2023-08-07T13:45:58;9.43;;;3.08;;
4812;SDS011;2420;51.202;8.698;2023-08-07T13:48:23;6.53;;;2.88;;
4812;SDS011;2420;51.202;8.698;2023-08-07T13:50:53;5.53;;;2.65;;
4812;SDS011;2420;51.202;8.698;2023-08-07T13:53:18;7.38;;;3.00;;
4812;SDS011;2420;51.202;8.698;2023-08-07T13:55:49;6.32;;;3.17;;
4812;SDS011;2420;51.202;8.698;2023-08-07T13:58:14;6.47;;;3.08;;
4812;SDS011;2420;51.202;8.698;2023-08-07T14:00:40;5.45;;;2.90;;
4812;SDS011;2420;51.202;8.698;2023-08-07T14:03:06;5.82;;;2.92;;
4812;SDS011;2420;51.202;8.698;2023-08-07T14:05:33;6.53;;;2.95;;
4812;SDS011;2420;51.202;8.698;2023-08-07T14:07:59;7.18;;;3.00;;
4812;SDS011;2420;51.202;8.698;2023-08-07T14:10:25;5.18;;;2.75;;
4812;SDS011;2420;51.202;8.698;2023-08-07T14:12:50;6.82;;;2.90;;
4812;SDS011;2420;51.202;8.698;2023-08-07T14:15:16;7.38;;;2.78;;
4812;SDS011;2420;51.202;8.698;2023-08-07T14:17:41;5.28;;;2.80;;
4812;SDS011;2420;51.202;8.698;2023-08-07T14:20:07;6.30;;;2.88;;
4812;SDS011;2420;51.202;8.698;2023-08-07T14:22:33;8.05;;;2.67;;
4812;SDS011;2420;51.202;8.698;2023-08-07T14:25:01;5.68;;;2.85;;
4812;SDS011;2420;51.202;8.698;2023-08-07T14:27:28;6.13;;;2.50;;
4812;SDS011;2420;51.202;8.698;2023-08-07T14:29:53;3.95;;;2.42;;
4812;SDS011;2420;51.202;8.698;2023-08-07T14:32:19;4.05;;;2.42;;
4812;SDS011;2420;51.202;8.698;2023-08-07T14:34:44;4.72;;;2.92;;
4812;SDS011;2420;51.202;8.698;2023-08-07T14:37:12;6.78;;;2.30;;
4812;SDS011;2420;51.202;8.698;2023-08-07T14:39:38;6.00;;;2.67;;
4812;SDS011;2420;51.202;8.698;2023-08-07T14:42:04;5.68;;;2.50;;
4812;SDS011;2420;51.202;8.698;2023-08-07T14:44:29;5.30;;;2.47;;
4812;SDS011;2420;51.202;8.698;2023-08-07T14:46:55;6.68;;;2.72;;
4812;SDS011;2420;51.202;8.698;2023-08-07T14:49:20;7.75;;;2.53;;
4812;SDS011;2420;51.202;8.698;2023-08-07T14:51:46;8.05;;;2.75;;
4812;SDS011;2420;51.202;8.698;2023-08-07T14:54:11;4.03;;;2.35;;
4812;SDS011;2420;51.202;8.698;2023-08-07T14:56:37;7.45;;;2.30;;
4812;SDS011;2420;51.202;8.698;2023-08-07T14:59:03;5.63;;;2.65;;
4812;SDS011;2420;51.202;8.698;2023-08-07T15:01:28;7.55;;;2.55;;
4812;SDS011;2420;51.202;8.698;2023-08-07T15:03:54;6.65;;;2.63;;
4812;SDS011;2420;51.202;8.698;2023-08-07T15:06:19;4.13;;;2.60;;
4812;SDS011;2420;51.202;8.698;2023-08-07T15:08:46;5.22;;;2.60;;
4812;SDS011;2420;51.202;8.698;2023-08-07T15:11:12;5.18;;;2.53;;
4812;SDS011;2420;51.202;8.698;2023-08-07T15:13:39;4.47;;;2.20;;
4812;SDS011;2420;51.202;8.698;2023-08-07T15:16:05;7.88;;;2.72;;
4812;SDS011;2420;51.202;8.698;2023-08-07T15:18:31;3.97;;;2.33;;